sensor_id;sensor_type;location;lat;lon;timestamp;P1;durP1;ratioP1;P2;durP2;ratioP2
59846;SDS011;45728;48.788;2.302;2023-03-07T00:00:56;16.35;;;12.73;;
59846;SDS011;45728;48.788;2.302;2023-03-07T00:03:22;18.23;;;13.10;;
59846;SDS011;45728;48.788;2.302;2023-03-07T00:05:48;16.42;;;12.88;;
59846;SDS011;45728;48.788;2.302;2023-03-07T00:08:14;17.20;;;11.93;;
59846;SDS011;45728;48.788;2.302;2023-03-07T00:10:40;16.23;;;12.48;;
59846;SDS011;45728;48.788;2.302;2023-03-07T00:13:06;16.10;;;13.10;;
59846;SDS011;45728;48.788;2.302;2023-03-07T00:15:33;16.90;;;13.02;;
59846;SDS011;45728;48.788;2.302;2023-03-07T00:18:02;17.17;;;12.50;;
59846;SDS011;45728;48.788;2.302;2023-03-07T00:20:28;16.10;;;13.05;;
59846;SDS011;45728;48.788;2.302;2023-03-07T00:22:54;17.23;;;13.10;;
59846;SDS011;45728;48.788;2.302;2023-03-07T00:25:20;19.13;;;13.52;;
59846;SDS011;45728;48.788;2.302;2023-03-07T00:27:46;16.08;;;12.52;;
59846;SDS011;45728;48.788;2.302;2023-03-07T00:30:12;17.30;;;12.20;;
59846;SDS011;45728;48.788;2.302;2023-03-07T00:32:38;18.75;;;12.70;;
59846;SDS011;45728;48.788;2.302;2023-03-07T00:35:05;17.40;;;13.00;;
59846;SDS011;45728;48.788;2.302;2023-03-07T00:37:31;15.75;;;12.82;;
59846;SDS011;45728;48.788;2.302;2023-03-07T00:39:57;17.55;;;12.77;;
59846;SDS011;45728;48.788;2.302;2023-03-07T00:42:23;20.17;;;14.23;;
59846;SDS011;45728;48.788;2.302;2023-03-07T00:44:49;13.60;;;7.38;;
59846;SDS011;45728;48.788;2.302;2023-03-07T00:47:15;18.98;;;13.50;;
59846;SDS011;45728;48.788;2.302;2023-03-07T00:49:41;15.10;;;12.50;;
59846;SDS011;45728;48.788;2.302;2023-03-07T00:52:08;17.85;;;12.40;;
59846;SDS011;45728;48.788;2.302;2023-03-07T00:54:34;16.17;;;12.52;;
59846;SDS011;45728;48.788;2.302;2023-03-07T00:57:00;19.45;;;12.45;;
59846;SDS011;45728;48.788;2.302;2023-03-07T00:59:26;15.50;;;12.98;;
59846;SDS011;45728;48.788;2.302;2023-03-07T01:01:52;18.17;;;12.52;;
59846;SDS011;45728;48.788;2.302;2023-03-07T01:04:18;14.90;;;7.55;;
59846;SDS011;45728;48.788;2.302;2023-03-07T01:06:44;18.73;;;12.13;;
59846;SDS011;45728;48.788;2.302;2023-03-07T01:09:10;17.52;;;12.32;;
59846;SDS011;45728;48.788;2.302;2023-03-07T01:11:36;19.83;;;13.10;;
59846;SDS011;45728;48.788;2.302;2023-03-07T01:14:03;17.88;;;12.75;;
59846;SDS011;45728;48.788;2.302;2023-03-07T01:16:31;18.08;;;12.73;;
59846;SDS011;45728;48.788;2.302;2023-03-07T01:19:00;16.30;;;6.80;;
59846;SDS011;45728;48.788;2.302;2023-03-07T01:21:32;16.70;;;12.98;;
59846;SDS011;45728;48.788;2.302;2023-03-07T01:24:03;17.83;;;13.15;;
59846;SDS011;45728;48.788;2.302;2023-03-07T01:26:30;17.55;;;12.93;;
59846;SDS011;45728;48.788;2.302;2023-03-07T01:28:58;16.27;;;12.20;;
59846;SDS011;45728;48.788;2.302;2023-03-07T01:31:26;17.88;;;13.23;;
59846;SDS011;45728;48.788;2.302;2023-03-07T01:33:54;18.40;;;13.10;;
59846;SDS011;45728;48.788;2.302;2023-03-07T01:36:24;19.23;;;13.32;;
59846;SDS011;45728;48.788;2.302;2023-03-07T01:38:59;17.70;;;13.02;;
59846;SDS011;45728;48.788;2.302;2023-03-07T01:41:31;17.80;;;12.48;;
59846;SDS011;45728;48.788;2.302;2023-03-07T01:43:58;16.75;;;12.63;;
59846;SDS011;45728;48.788;2.302;2023-03-07T01:46:29;16.60;;;13.02;;
59846;SDS011;45728;48.788;2.302;2023-03-07T01:49:03;19.98;;;14.07;;
59846;SDS011;45728;48.788;2.302;2023-03-07T01:51:34;18.23;;;13.10;;
59846;SDS011;45728;48.788;2.302;2023-03-07T01:54:03;18.23;;;13.13;;
59846;SDS011;45728;48.788;2.302;2023-03-07T01:56:32;19.83;;;12.98;;
59846;SDS011;45728;48.788;2.302;2023-03-07T01:59:00;18.70;;;13.13;;
59846;SDS011;45728;48.788;2.302;2023-03-07T02:01:27;15.95;;;12.50;;
59846;SDS011;45728;48.788;2.302;2023-03-07T02:03:57;18.15;;;12.60;;
59846;SDS011;45728;48.788;2.302;2023-03-07T02:06:24;12.98;;;6.65;;
59846;SDS011;45728;48.788;2.302;2023-03-07T02:08:53;16.80;;;12.57;;
59846;SDS011;45728;48.788;2.302;2023-03-07T02:11:21;20.70;;;13.07;;
59846;SDS011;45728;48.788;2.302;2023-03-07T02:13:48;17.58;;;13.05;;
59846;SDS011;45728;48.788;2.302;2023-03-07T02:16:14;17.05;;;12.65;;
59846;SDS011;45728;48.788;2.302;2023-03-07T02:18:44;15.88;;;12.57;;
59846;SDS011;45728;48.788;2.302;2023-03-07T02:21:16;19.95;;;12.60;;
59846;SDS011;45728;48.788;2.302;2023-03-07T02:26:54;16.50;;;12.65;;
59846;SDS011;45728;48.788;2.302;2023-03-07T02:29:22;15.15;;;6.95;;
59846;SDS011;45728;48.788;2.302;2023-03-07T02:31:48;17.40;;;12.40;;
59846;SDS011;45728;48.788;2.302;2023-03-07T02:36:58;16.83;;;7.65;;
59846;SDS011;45728;48.788;2.302;2023-03-07T02:39:29;17.30;;;12.45;;
59846;SDS011;45728;48.788;2.302;2023-03-07T02:41:57;18.25;;;12.98;;
59846;SDS011;45728;48.788;2.302;2023-03-07T02:44:27;16.70;;;7.45;;
59846;SDS011;45728;48.788;2.302;2023-03-07T02:46:53;16.02;;;11.85;;
59846;SDS011;45728;48.788;2.302;2023-03-07T02:49:20;18.30;;;12.93;;
59846;SDS011;45728;48.788;2.302;2023-03-07T02:51:46;15.73;;;6.88;;
59846;SDS011;45728;48.788;2.302;2023-03-07T02:54:12;17.38;;;12.18;;
59846;SDS011;45728;48.788;2.302;2023-03-07T02:56:38;18.67;;;12.70;;
59846;SDS011;45728;48.788;2.302;2023-03-07T02:59:04;19.52;;;12.90;;
59846;SDS011;45728;48.788;2.302;2023-03-07T03:01:30;17.40;;;12.55;;
59846;SDS011;45728;48.788;2.302;2023-03-07T03:03:56;17.25;;;12.65;;
59846;SDS011;45728;48.788;2.302;2023-03-07T03:06:23;15.07;;;11.95;;
59846;SDS011;45728;48.788;2.302;2023-03-07T03:08:49;16.27;;;12.45;;
59846;SDS011;45728;48.788;2.302;2023-03-07T03:11:15;15.48;;;12.82;;
59846;SDS011;45728;48.788;2.302;2023-03-07T03:14:00;14.15;;;6.40;;
59846;SDS011;45728;48.788;2.302;2023-03-07T03:16:26;18.38;;;11.77;;
59846;SDS011;45728;48.788;2.302;2023-03-07T03:18:52;16.42;;;11.95;;
59846;SDS011;45728;48.788;2.302;2023-03-07T03:21:18;18.90;;;12.13;;
59846;SDS011;45728;48.788;2.302;2023-03-07T03:23:44;17.25;;;12.43;;
59846;SDS011;45728;48.788;2.302;2023-03-07T03:26:10;17.17;;;12.30;;
59846;SDS011;45728;48.788;2.302;2023-03-07T03:28:37;16.42;;;6.78;;
59846;SDS011;45728;48.788;2.302;2023-03-07T03:31:05;13.95;;;6.40;;
59846;SDS011;45728;48.788;2.302;2023-03-07T03:33:33;18.27;;;12.77;;
59846;SDS011;45728;48.788;2.302;2023-03-07T03:36:00;16.55;;;12.63;;
59846;SDS011;45728;48.788;2.302;2023-03-07T03:38:31;17.10;;;12.02;;
59846;SDS011;45728;48.788;2.302;2023-03-07T03:40:58;14.88;;;11.82;;
59846;SDS011;45728;48.788;2.302;2023-03-07T03:43:27;15.10;;;12.48;;
59846;SDS011;45728;48.788;2.302;2023-03-07T03:45:54;17.70;;;12.27;;
59846;SDS011;45728;48.788;2.302;2023-03-07T03:48:21;16.17;;;11.70;;
59846;SDS011;45728;48.788;2.302;2023-03-07T03:50:47;16.17;;;11.80;;
59846;SDS011;45728;48.788;2.302;2023-03-07T03:53:13;15.35;;;12.23;;
59846;SDS011;45728;48.788;2.302;2023-03-07T03:55:39;17.88;;;12.35;;
59846;SDS011;45728;48.788;2.302;2023-03-07T03:58:05;19.30;;;13.60;;
59846;SDS011;45728;48.788;2.302;2023-03-07T04:00:31;19.10;;;13.27;;
59846;SDS011;45728;48.788;2.302;2023-03-07T04:02:58;18.08;;;13.32;;
59846;SDS011;45728;48.788;2.302;2023-03-07T04:05:24;17.13;;;12.60;;
59846;SDS011;45728;48.788;2.302;2023-03-07T04:07:50;16.98;;;12.45;;
59846;SDS011;45728;48.788;2.302;2023-03-07T04:10:16;14.80;;;7.32;;
59846;SDS011;45728;48.788;2.302;2023-03-07T04:12:42;18.40;;;13.18;;
59846;SDS011;45728;48.788;2.302;2023-03-07T04:15:08;17.25;;;7.78;;
59846;SDS011;45728;48.788;2.302;2023-03-07T04:17:34;18.02;;;12.20;;
59846;SDS011;45728;48.788;2.302;2023-03-07T04:20:00;18.15;;;13.02;;
59846;SDS011;45728;48.788;2.302;2023-03-07T04:22:29;15.75;;;11.90;;
59846;SDS011;45728;48.788;2.302;2023-03-07T04:24:55;13.98;;;7.40;;
59846;SDS011;45728;48.788;2.302;2023-03-07T04:27:21;16.33;;;11.82;;
59846;SDS011;45728;48.788;2.302;2023-03-07T04:29:47;17.23;;;12.02;;
59846;SDS011;45728;48.788;2.302;2023-03-07T04:32:13;15.57;;;12.65;;
59846;SDS011;45728;48.788;2.302;2023-03-07T04:34:39;17.27;;;7.43;;
59846;SDS011;45728;48.788;2.302;2023-03-07T04:37:05;16.92;;;12.60;;
59846;SDS011;45728;48.788;2.302;2023-03-07T04:39:31;18.80;;;12.63;;
59846;SDS011;45728;48.788;2.302;2023-03-07T04:41:57;14.95;;;12.00;;
59846;SDS011;45728;48.788;2.302;2023-03-07T04:44:23;17.55;;;12.20;;
59846;SDS011;45728;48.788;2.302;2023-03-07T04:46:49;18.60;;;12.25;;
59846;SDS011;45728;48.788;2.302;2023-03-07T04:49:15;17.70;;;12.93;;
59846;SDS011;45728;48.788;2.302;2023-03-07T04:51:41;20.08;;;12.75;;
59846;SDS011;45728;48.788;2.302;2023-03-07T04:54:07;15.68;;;7.38;;
59846;SDS011;45728;48.788;2.302;2023-03-07T04:56:33;18.27;;;12.52;;
59846;SDS011;45728;48.788;2.302;2023-03-07T04:58:59;16.83;;;7.00;;
59846;SDS011;45728;48.788;2.302;2023-03-07T05:01:25;16.85;;;12.68;;
59846;SDS011;45728;48.788;2.302;2023-03-07T05:03:51;18.58;;;13.35;;
59846;SDS011;45728;48.788;2.302;2023-03-07T05:06:18;15.85;;;11.77;;
59846;SDS011;45728;48.788;2.302;2023-03-07T05:08:44;18.98;;;12.82;;
59846;SDS011;45728;48.788;2.302;2023-03-07T05:11:10;20.17;;;12.82;;
59846;SDS011;45728;48.788;2.302;2023-03-07T05:13:36;17.73;;;12.20;;
59846;SDS011;45728;48.788;2.302;2023-03-07T05:16:02;16.88;;;8.48;;
59846;SDS011;45728;48.788;2.302;2023-03-07T05:18:28;13.00;;;6.38;;
59846;SDS011;45728;48.788;2.302;2023-03-07T05:20:54;19.40;;;12.13;;
59846;SDS011;45728;48.788;2.302;2023-03-07T05:23:20;21.88;;;13.45;;
59846;SDS011;45728;48.788;2.302;2023-03-07T05:25:47;17.35;;;12.98;;
59846;SDS011;45728;48.788;2.302;2023-03-07T05:28:13;17.92;;;12.80;;
59846;SDS011;45728;48.788;2.302;2023-03-07T05:30:41;16.92;;;12.90;;
59846;SDS011;45728;48.788;2.302;2023-03-07T05:33:08;19.73;;;7.53;;
59846;SDS011;45728;48.788;2.302;2023-03-07T05:35:35;22.65;;;13.15;;
59846;SDS011;45728;48.788;2.302;2023-03-07T05:38:01;17.90;;;11.23;;
59846;SDS011;45728;48.788;2.302;2023-03-07T05:40:27;16.90;;;7.45;;
59846;SDS011;45728;48.788;2.302;2023-03-07T05:42:54;19.20;;;12.65;;
59846;SDS011;45728;48.788;2.302;2023-03-07T05:45:20;15.48;;;6.75;;
59846;SDS011;45728;48.788;2.302;2023-03-07T05:47:46;17.15;;;12.57;;
59846;SDS011;45728;48.788;2.302;2023-03-07T05:50:12;11.90;;;6.25;;
59846;SDS011;45728;48.788;2.302;2023-03-07T05:52:38;18.17;;;13.57;;
59846;SDS011;45728;48.788;2.302;2023-03-07T05:55:05;17.75;;;13.18;;
59846;SDS011;45728;48.788;2.302;2023-03-07T05:57:32;17.83;;;12.93;;
59846;SDS011;45728;48.788;2.302;2023-03-07T05:59:58;15.40;;;12.43;;
59846;SDS011;45728;48.788;2.302;2023-03-07T06:02:24;19.65;;;12.77;;
59846;SDS011;45728;48.788;2.302;2023-03-07T06:04:50;15.40;;;11.43;;
59846;SDS011;45728;48.788;2.302;2023-03-07T06:07:16;16.88;;;12.75;;
59846;SDS011;45728;48.788;2.302;2023-03-07T06:09:42;16.48;;;12.40;;
59846;SDS011;45728;48.788;2.302;2023-03-07T06:12:09;20.10;;;12.20;;
59846;SDS011;45728;48.788;2.302;2023-03-07T06:14:35;18.75;;;13.20;;
59846;SDS011;45728;48.788;2.302;2023-03-07T06:17:02;19.52;;;12.77;;
59846;SDS011;45728;48.788;2.302;2023-03-07T06:19:28;16.85;;;12.38;;
59846;SDS011;45728;48.788;2.302;2023-03-07T06:21:55;18.17;;;11.80;;
59846;SDS011;45728;48.788;2.302;2023-03-07T06:24:21;16.42;;;12.07;;
59846;SDS011;45728;48.788;2.302;2023-03-07T06:26:47;17.77;;;12.60;;
59846;SDS011;45728;48.788;2.302;2023-03-07T06:29:13;18.77;;;12.07;;
59846;SDS011;45728;48.788;2.302;2023-03-07T06:31:39;14.90;;;6.20;;
59846;SDS011;45728;48.788;2.302;2023-03-07T06:34:05;17.10;;;12.40;;
59846;SDS011;45728;48.788;2.302;2023-03-07T06:36:33;15.07;;;11.43;;
59846;SDS011;45728;48.788;2.302;2023-03-07T06:38:59;15.65;;;11.50;;
59846;SDS011;45728;48.788;2.302;2023-03-07T06:41:25;19.35;;;12.77;;
59846;SDS011;45728;48.788;2.302;2023-03-07T06:43:51;20.70;;;12.80;;
59846;SDS011;45728;48.788;2.302;2023-03-07T06:46:18;16.35;;;11.75;;
59846;SDS011;45728;48.788;2.302;2023-03-07T06:48:45;14.65;;;10.95;;
59846;SDS011;45728;48.788;2.302;2023-03-07T06:51:12;15.70;;;11.90;;
59846;SDS011;45728;48.788;2.302;2023-03-07T06:53:38;14.68;;;6.38;;
59846;SDS011;45728;48.788;2.302;2023-03-07T06:56:05;19.52;;;11.25;;
59846;SDS011;45728;48.788;2.302;2023-03-07T06:58:31;14.75;;;6.35;;
59846;SDS011;45728;48.788;2.302;2023-03-07T07:00:57;17.77;;;12.20;;
59846;SDS011;45728;48.788;2.302;2023-03-07T07:03:23;16.42;;;11.52;;
59846;SDS011;45728;48.788;2.302;2023-03-07T07:05:50;18.20;;;11.30;;
59846;SDS011;45728;48.788;2.302;2023-03-07T07:08:16;17.98;;;11.68;;
59846;SDS011;45728;48.788;2.302;2023-03-07T07:10:42;18.23;;;5.93;;
59846;SDS011;45728;48.788;2.302;2023-03-07T07:13:08;15.05;;;11.30;;
59846;SDS011;45728;48.788;2.302;2023-03-07T07:15:36;15.00;;;11.60;;
59846;SDS011;45728;48.788;2.302;2023-03-07T07:18:03;11.75;;;7.03;;
59846;SDS011;45728;48.788;2.302;2023-03-07T07:20:29;16.35;;;12.00;;
59846;SDS011;45728;48.788;2.302;2023-03-07T07:22:55;15.63;;;5.90;;
59846;SDS011;45728;48.788;2.302;2023-03-07T07:25:21;16.85;;;12.20;;
59846;SDS011;45728;48.788;2.302;2023-03-07T07:27:47;24.30;;;11.77;;
59846;SDS011;45728;48.788;2.302;2023-03-07T07:30:14;19.10;;;11.85;;
59846;SDS011;45728;48.788;2.302;2023-03-07T07:32:40;18.17;;;12.02;;
59846;SDS011;45728;48.788;2.302;2023-03-07T07:35:06;15.10;;;11.23;;
59846;SDS011;45728;48.788;2.302;2023-03-07T07:37:33;16.88;;;11.23;;
59846;SDS011;45728;48.788;2.302;2023-03-07T07:39:59;15.57;;;11.88;;
59846;SDS011;45728;48.788;2.302;2023-03-07T07:42:25;14.75;;;10.80;;
59846;SDS011;45728;48.788;2.302;2023-03-07T07:44:51;15.23;;;11.73;;
59846;SDS011;45728;48.788;2.302;2023-03-07T07:47:17;14.90;;;10.88;;
59846;SDS011;45728;48.788;2.302;2023-03-07T07:49:43;15.63;;;11.10;;
59846;SDS011;45728;48.788;2.302;2023-03-07T07:52:09;16.60;;;11.85;;
59846;SDS011;45728;48.788;2.302;2023-03-07T07:54:35;14.65;;;11.30;;
59846;SDS011;45728;48.788;2.302;2023-03-07T07:57:01;20.40;;;13.05;;
59846;SDS011;45728;48.788;2.302;2023-03-07T07:59:27;16.33;;;11.40;;
59846;SDS011;45728;48.788;2.302;2023-03-07T08:01:53;15.65;;;11.73;;
59846;SDS011;45728;48.788;2.302;2023-03-07T08:04:19;15.20;;;10.95;;
59846;SDS011;45728;48.788;2.302;2023-03-07T08:06:45;14.48;;;11.55;;
59846;SDS011;45728;48.788;2.302;2023-03-07T08:09:11;15.73;;;11.27;;
59846;SDS011;45728;48.788;2.302;2023-03-07T08:11:39;14.07;;;11.23;;
59846;SDS011;45728;48.788;2.302;2023-03-07T08:14:05;18.60;;;11.40;;
59846;SDS011;45728;48.788;2.302;2023-03-07T08:16:31;16.92;;;6.60;;
59846;SDS011;45728;48.788;2.302;2023-03-07T08:18:57;15.70;;;6.55;;
59846;SDS011;45728;48.788;2.302;2023-03-07T08:21:24;16.27;;;6.30;;
59846;SDS011;45728;48.788;2.302;2023-03-07T08:23:54;14.85;;;10.95;;
59846;SDS011;45728;48.788;2.302;2023-03-07T08:26:21;18.42;;;12.25;;
59846;SDS011;45728;48.788;2.302;2023-03-07T08:28:47;13.70;;;6.25;;
59846;SDS011;45728;48.788;2.302;2023-03-07T08:31:15;15.60;;;10.77;;
59846;SDS011;45728;48.788;2.302;2023-03-07T08:33:47;14.27;;;11.13;;
59846;SDS011;45728;48.788;2.302;2023-03-07T08:36:14;11.50;;;5.43;;
59846;SDS011;45728;48.788;2.302;2023-03-07T08:38:40;20.52;;;11.40;;
59846;SDS011;45728;48.788;2.302;2023-03-07T08:41:07;16.67;;;11.27;;
59846;SDS011;45728;48.788;2.302;2023-03-07T08:43:34;15.23;;;10.90;;
59846;SDS011;45728;48.788;2.302;2023-03-07T08:46:02;10.90;;;5.68;;
59846;SDS011;45728;48.788;2.302;2023-03-07T08:48:28;17.58;;;10.75;;
59846;SDS011;45728;48.788;2.302;2023-03-07T08:50:54;12.98;;;6.10;;
59846;SDS011;45728;48.788;2.302;2023-03-07T08:53:21;15.98;;;11.35;;
59846;SDS011;45728;48.788;2.302;2023-03-07T08:55:47;22.65;;;11.25;;
59846;SDS011;45728;48.788;2.302;2023-03-07T08:58:13;14.45;;;10.20;;
59846;SDS011;45728;48.788;2.302;2023-03-07T09:00:39;11.70;;;5.47;;
59846;SDS011;45728;48.788;2.302;2023-03-07T09:03:06;15.90;;;11.65;;
59846;SDS011;45728;48.788;2.302;2023-03-07T09:05:35;15.77;;;11.50;;
59846;SDS011;45728;48.788;2.302;2023-03-07T09:08:03;15.70;;;11.57;;
59846;SDS011;45728;48.788;2.302;2023-03-07T09:10:31;19.50;;;11.48;;
59846;SDS011;45728;48.788;2.302;2023-03-07T09:12:58;16.65;;;12.07;;
59846;SDS011;45728;48.788;2.302;2023-03-07T09:15:24;19.13;;;11.32;;
59846;SDS011;45728;48.788;2.302;2023-03-07T09:17:51;15.07;;;10.95;;
59846;SDS011;45728;48.788;2.302;2023-03-07T09:20:17;16.80;;;11.00;;
59846;SDS011;45728;48.788;2.302;2023-03-07T09:22:43;17.80;;;11.52;;
59846;SDS011;45728;48.788;2.302;2023-03-07T09:25:11;16.95;;;11.35;;
59846;SDS011;45728;48.788;2.302;2023-03-07T09:27:37;15.80;;;11.27;;
59846;SDS011;45728;48.788;2.302;2023-03-07T09:32:50;17.58;;;11.77;;
59846;SDS011;45728;48.788;2.302;2023-03-07T09:35:16;16.00;;;11.45;;
59846;SDS011;45728;48.788;2.302;2023-03-07T09:37:42;16.05;;;11.23;;
59846;SDS011;45728;48.788;2.302;2023-03-07T09:40:11;14.98;;;6.20;;
59846;SDS011;45728;48.788;2.302;2023-03-07T09:47:52;15.67;;;11.17;;
59846;SDS011;45728;48.788;2.302;2023-03-07T09:50:28;16.15;;;12.00;;
59846;SDS011;45728;48.788;2.302;2023-03-07T09:53:04;15.07;;;11.53;;
59846;SDS011;45728;48.788;2.302;2023-03-07T09:55:30;14.90;;;11.32;;
59846;SDS011;45728;48.788;2.302;2023-03-07T09:57:57;18.75;;;10.85;;
59846;SDS011;45728;48.788;2.302;2023-03-07T10:00:30;21.70;;;11.52;;
59846;SDS011;45728;48.788;2.302;2023-03-07T10:05:47;16.52;;;11.20;;
59846;SDS011;45728;48.788;2.302;2023-03-07T10:08:21;17.85;;;11.23;;
59846;SDS011;45728;48.788;2.302;2023-03-07T10:10:57;17.73;;;10.95;;
59846;SDS011;45728;48.788;2.302;2023-03-07T10:15:55;20.33;;;10.57;;
59846;SDS011;45728;48.788;2.302;2023-03-07T10:24:18;17.65;;;10.95;;
59846;SDS011;45728;48.788;2.302;2023-03-07T10:27:01;13.48;;;10.52;;
59846;SDS011;45728;48.788;2.302;2023-03-07T10:30:07;19.08;;;10.88;;
59846;SDS011;45728;48.788;2.302;2023-03-07T10:32:45;14.60;;;10.38;;
59846;SDS011;45728;48.788;2.302;2023-03-07T10:35:15;14.23;;;10.75;;
59846;SDS011;45728;48.788;2.302;2023-03-07T10:40:18;14.43;;;10.23;;
59846;SDS011;45728;48.788;2.302;2023-03-07T10:43:06;16.10;;;10.35;;
59846;SDS011;45728;48.788;2.302;2023-03-07T10:45:48;13.65;;;10.20;;
59846;SDS011;45728;48.788;2.302;2023-03-07T10:48:15;14.02;;;9.43;;
59846;SDS011;45728;48.788;2.302;2023-03-07T10:51:00;12.75;;;8.77;;
59846;SDS011;45728;48.788;2.302;2023-03-07T10:53:44;15.13;;;9.77;;
59846;SDS011;45728;48.788;2.302;2023-03-07T10:58:38;18.17;;;9.73;;
59846;SDS011;45728;48.788;2.302;2023-03-07T11:01:23;14.32;;;9.00;;
59846;SDS011;45728;48.788;2.302;2023-03-07T11:06:31;12.63;;;8.90;;
59846;SDS011;45728;48.788;2.302;2023-03-07T11:14:26;12.73;;;8.00;;
59846;SDS011;45728;48.788;2.302;2023-03-07T11:16:55;10.75;;;8.00;;
59846;SDS011;45728;48.788;2.302;2023-03-07T11:22:17;10.10;;;7.60;;
59846;SDS011;45728;48.788;2.302;2023-03-07T11:27:22;10.73;;;7.25;;
59846;SDS011;45728;48.788;2.302;2023-03-07T11:30:05;10.40;;;7.53;;
59846;SDS011;45728;48.788;2.302;2023-03-07T11:32:44;11.90;;;6.63;;
59846;SDS011;45728;48.788;2.302;2023-03-07T11:35:26;13.55;;;6.90;;
59846;SDS011;45728;48.788;2.302;2023-03-07T11:41:24;9.70;;;6.68;;
59846;SDS011;45728;48.788;2.302;2023-03-07T11:44:07;7.68;;;6.40;;
59846;SDS011;45728;48.788;2.302;2023-03-07T11:52:42;9.05;;;6.32;;
59846;SDS011;45728;48.788;2.302;2023-03-07T12:00:35;12.35;;;6.35;;
59846;SDS011;45728;48.788;2.302;2023-03-07T12:06:11;8.40;;;5.50;;
59846;SDS011;45728;48.788;2.302;2023-03-07T12:11:21;7.68;;;5.07;;
59846;SDS011;45728;48.788;2.302;2023-03-07T12:17:01;8.45;;;5.57;;
59846;SDS011;45728;48.788;2.302;2023-03-07T12:19:53;9.20;;;5.47;;
59846;SDS011;45728;48.788;2.302;2023-03-07T12:25:03;7.07;;;5.25;;
59846;SDS011;45728;48.788;2.302;2023-03-07T12:27:34;7.43;;;5.13;;
59846;SDS011;45728;48.788;2.302;2023-03-07T12:30:29;12.88;;;5.50;;
59846;SDS011;45728;48.788;2.302;2023-03-07T12:33:02;10.85;;;5.40;;
59846;SDS011;45728;48.788;2.302;2023-03-07T12:35:43;26.13;;;6.68;;
59846;SDS011;45728;48.788;2.302;2023-03-07T12:40:58;11.00;;;6.30;;
59846;SDS011;45728;48.788;2.302;2023-03-07T12:43:45;29.13;;;7.45;;
59846;SDS011;45728;48.788;2.302;2023-03-07T12:46:29;7.90;;;5.57;;
59846;SDS011;45728;48.788;2.302;2023-03-07T12:51:48;10.40;;;6.10;;
59846;SDS011;45728;48.788;2.302;2023-03-07T12:54:24;6.80;;;5.70;;
59846;SDS011;45728;48.788;2.302;2023-03-07T12:56:55;13.95;;;6.22;;
59846;SDS011;45728;48.788;2.302;2023-03-07T12:59:24;9.40;;;5.95;;
59846;SDS011;45728;48.788;2.302;2023-03-07T13:04:39;9.43;;;5.53;;
59846;SDS011;45728;48.788;2.302;2023-03-07T13:07:13;9.13;;;6.03;;
59846;SDS011;45728;48.788;2.302;2023-03-07T13:09:46;7.38;;;5.00;;
59846;SDS011;45728;48.788;2.302;2023-03-07T13:43:00;8.95;;;5.03;;
59846;SDS011;45728;48.788;2.302;2023-03-07T13:48:02;11.25;;;4.95;;
59846;SDS011;45728;48.788;2.302;2023-03-07T13:53:01;10.35;;;5.32;;
59846;SDS011;45728;48.788;2.302;2023-03-07T13:55:30;11.73;;;5.00;;
59846;SDS011;45728;48.788;2.302;2023-03-07T13:58:05;6.35;;;4.50;;
59846;SDS011;45728;48.788;2.302;2023-03-07T14:00:49;9.15;;;5.60;;
59846;SDS011;45728;48.788;2.302;2023-03-07T14:03:27;6.15;;;4.72;;
59846;SDS011;45728;48.788;2.302;2023-03-07T14:06:00;12.27;;;5.13;;
59846;SDS011;45728;48.788;2.302;2023-03-07T14:08:32;8.15;;;4.97;;
59846;SDS011;45728;48.788;2.302;2023-03-07T14:10:59;8.52;;;5.63;;
59846;SDS011;45728;48.788;2.302;2023-03-07T14:18:54;9.38;;;6.75;;
59846;SDS011;45728;48.788;2.302;2023-03-07T14:21:42;8.02;;;5.40;;
59846;SDS011;45728;48.788;2.302;2023-03-07T14:27:10;8.18;;;5.05;;
59846;SDS011;45728;48.788;2.302;2023-03-07T14:29:51;6.88;;;5.40;;
59846;SDS011;45728;48.788;2.302;2023-03-07T14:32:30;7.82;;;5.97;;
59846;SDS011;45728;48.788;2.302;2023-03-07T14:34:57;6.78;;;4.72;;
59846;SDS011;45728;48.788;2.302;2023-03-07T14:37:24;18.58;;;6.40;;
59846;SDS011;45728;48.788;2.302;2023-03-07T14:40:38;28.25;;;7.15;;
59846;SDS011;45728;48.788;2.302;2023-03-07T14:46:12;9.07;;;6.20;;
59846;SDS011;45728;48.788;2.302;2023-03-07T14:51:24;8.75;;;6.20;;
59846;SDS011;45728;48.788;2.302;2023-03-07T14:53:52;17.33;;;6.57;;
59846;SDS011;45728;48.788;2.302;2023-03-07T14:56:29;8.38;;;6.00;;
59846;SDS011;45728;48.788;2.302;2023-03-07T14:59:00;10.90;;;6.40;;
59846;SDS011;45728;48.788;2.302;2023-03-07T15:01:31;15.98;;;6.95;;
59846;SDS011;45728;48.788;2.302;2023-03-07T15:04:02;9.23;;;6.13;;
59846;SDS011;45728;48.788;2.302;2023-03-07T15:06:40;10.50;;;6.30;;
59846;SDS011;45728;48.788;2.302;2023-03-07T15:09:08;7.68;;;6.28;;
59846;SDS011;45728;48.788;2.302;2023-03-07T15:11:45;8.50;;;6.00;;
59846;SDS011;45728;48.788;2.302;2023-03-07T15:14:39;9.48;;;5.90;;
59846;SDS011;45728;48.788;2.302;2023-03-07T15:17:12;9.70;;;6.45;;
59846;SDS011;45728;48.788;2.302;2023-03-07T15:19:44;7.72;;;6.13;;
59846;SDS011;45728;48.788;2.302;2023-03-07T15:22:25;8.68;;;5.93;;
59846;SDS011;45728;48.788;2.302;2023-03-07T15:24:53;15.07;;;6.00;;
59846;SDS011;45728;48.788;2.302;2023-03-07T15:27:24;15.57;;;6.15;;
59846;SDS011;45728;48.788;2.302;2023-03-07T15:29:52;7.57;;;5.43;;
59846;SDS011;45728;48.788;2.302;2023-03-07T15:34:59;11.38;;;6.40;;
59846;SDS011;45728;48.788;2.302;2023-03-07T15:40:28;7.68;;;5.65;;
59846;SDS011;45728;48.788;2.302;2023-03-07T15:42:57;7.03;;;5.60;;
59846;SDS011;45728;48.788;2.302;2023-03-07T15:45:39;9.07;;;6.00;;
59846;SDS011;45728;48.788;2.302;2023-03-07T15:48:21;8.57;;;5.80;;
59846;SDS011;45728;48.788;2.302;2023-03-07T15:51:13;14.77;;;6.45;;
59846;SDS011;45728;48.788;2.302;2023-03-07T15:53:42;10.18;;;5.72;;
59846;SDS011;45728;48.788;2.302;2023-03-07T15:56:22;10.68;;;5.75;;
59846;SDS011;45728;48.788;2.302;2023-03-07T16:04:57;7.60;;;5.90;;
59846;SDS011;45728;48.788;2.302;2023-03-07T16:07:24;13.35;;;6.75;;
59846;SDS011;45728;48.788;2.302;2023-03-07T16:09:50;20.08;;;6.93;;
59846;SDS011;45728;48.788;2.302;2023-03-07T16:12:17;29.83;;;7.75;;
59846;SDS011;45728;48.788;2.302;2023-03-07T16:14:45;12.13;;;6.30;;
59846;SDS011;45728;48.788;2.302;2023-03-07T16:17:17;11.73;;;6.68;;
59846;SDS011;45728;48.788;2.302;2023-03-07T16:19:45;7.75;;;6.15;;
59846;SDS011;45728;48.788;2.302;2023-03-07T16:22:15;7.82;;;5.97;;
59846;SDS011;45728;48.788;2.302;2023-03-07T16:24:42;10.80;;;6.20;;
59846;SDS011;45728;48.788;2.302;2023-03-07T16:27:13;9.48;;;6.53;;
59846;SDS011;45728;48.788;2.302;2023-03-07T16:29:42;11.18;;;6.18;;
59846;SDS011;45728;48.788;2.302;2023-03-07T16:32:12;6.93;;;5.45;;
59846;SDS011;45728;48.788;2.302;2023-03-07T16:34:43;7.45;;;6.00;;
59846;SDS011;45728;48.788;2.302;2023-03-07T16:37:10;7.80;;;5.63;;
59846;SDS011;45728;48.788;2.302;2023-03-07T16:39:37;7.82;;;5.50;;
59846;SDS011;45728;48.788;2.302;2023-03-07T16:42:04;10.70;;;6.63;;
59846;SDS011;45728;48.788;2.302;2023-03-07T16:44:31;7.55;;;6.15;;
59846;SDS011;45728;48.788;2.302;2023-03-07T16:47:04;6.57;;;5.88;;
59846;SDS011;45728;48.788;2.302;2023-03-07T16:49:36;7.05;;;5.60;;
59846;SDS011;45728;48.788;2.302;2023-03-07T16:52:02;10.63;;;6.43;;
59846;SDS011;45728;48.788;2.302;2023-03-07T16:54:29;8.43;;;6.55;;
59846;SDS011;45728;48.788;2.302;2023-03-07T16:56:55;8.68;;;5.72;;
59846;SDS011;45728;48.788;2.302;2023-03-07T16:59:23;8.95;;;6.18;;